<?xml version="1.0" encoding="UTF-8"?>
<gpx version="1.1" creator="https://www.youtrack.es" xsi:schemaLocation="http://www.topografix.com/GPX/1/1 http://www.topografix.com/GPX/1/1/gpx.xsd http://www.garmin.com/xmlschemas/GpxExtensions/v3 http://www.garmin.com/xmlschemas/GpxExtensionsv3.xsd http://www.garmin.com/xmlschemas/TrackPointExtension/v1 http://www.garmin.com/xmlschemas/TrackPointExtensionv1.xsd" xmlns:gpxtpx="http://www.garmin.com/xmlschemas/TrackPointExtension/v1" xmlns:gpxx="http://www.garmin.com/xmlschemas/GpxExtensions/v3" xmlns:xsi="http://www.w3.org/2001/XMLSchema-instance">
  <metadata>
    <link href="https://www.youtrack.es">
      <text>YouTrack.es</text>
    </link>
    <time>2026-05-08T18:31:02Z</time>
  </metadata>
  <trk>
    <src>https://www.youtrack.es</src>
    <link href="https://www.youtrack.es/ruta/16362-pontevedra-noche">
      <text>YouTrack.es</text>
    </link>
    <trkseg>
      <trkpt lat="42.446175" lon="-8.629028">
        <ele>20.14646</ele>
        <time>2020-10-02T18:50:38Z</time>
      </trkpt>
      <trkpt lat="42.446236" lon="-8.629855">
        <ele>18.337334</ele>
        <time>2020-10-02T18:50:48Z</time>
      </trkpt>
      <trkpt lat="42.446262" lon="-8.630896">
        <ele>14.347873</ele>
        <time>2020-10-02T18:50:58Z</time>
      </trkpt>
      <trkpt lat="42.445946" lon="-8.631721">
        <ele>12.048687</ele>
        <time>2020-10-02T18:51:08Z</time>
      </trkpt>
      <trkpt lat="42.44525" lon="-8.632295">
        <ele>7.9949765</ele>
        <time>2020-10-02T18:51:18Z</time>
      </trkpt>
      <trkpt lat="42.444706" lon="-8.63253">
        <ele>5.659801</ele>
        <time>2020-10-02T18:51:28Z</time>
      </trkpt>
      <trkpt lat="42.444386" lon="-8.632519">
        <ele>5.6013503</ele>
        <time>2020-10-02T18:51:33Z</time>
      </trkpt>
      <trkpt lat="42.444035" lon="-8.632461">
        <ele>5.204089</ele>
        <time>2020-10-02T18:51:38Z</time>
      </trkpt>
      <trkpt lat="42.443684" lon="-8.632434">
        <ele>3.8300767</ele>
        <time>2020-10-02T18:51:43Z</time>
      </trkpt>
      <trkpt lat="42.442963" lon="-8.632419">
        <ele>3.9895647</ele>
        <time>2020-10-02T18:51:53Z</time>
      </trkpt>
      <trkpt lat="42.442307" lon="-8.632436">
        <ele>3.733988</ele>
        <time>2020-10-02T18:52:03Z</time>
      </trkpt>
      <trkpt lat="42.441776" lon="-8.632417">
        <ele>1.9489979</ele>
        <time>2020-10-02T18:52:13Z</time>
      </trkpt>
      <trkpt lat="42.44117" lon="-8.632318">
        <ele>0.20278</ele>
        <time>2020-10-02T18:52:23Z</time>
      </trkpt>
      <trkpt lat="42.440556" lon="-8.632231">
        <ele>1.218006</ele>
        <time>2020-10-02T18:52:33Z</time>
      </trkpt>
      <trkpt lat="42.439938" lon="-8.632062">
        <ele>1.1803675</ele>
        <time>2020-10-02T18:52:43Z</time>
      </trkpt>
      <trkpt lat="42.439644" lon="-8.631925">
        <ele>0.99514747</ele>
        <time>2020-10-02T18:52:48Z</time>
      </trkpt>
      <trkpt lat="42.43936" lon="-8.631795">
        <ele>0.9971284</ele>
        <time>2020-10-02T18:52:53Z</time>
      </trkpt>
      <trkpt lat="42.43906" lon="-8.631717">
        <ele>0.7306917</ele>
        <time>2020-10-02T18:52:58Z</time>
      </trkpt>
      <trkpt lat="42.43845" lon="-8.6316">
        <ele>1.4537432</ele>
        <time>2020-10-02T18:53:08Z</time>
      </trkpt>
      <trkpt lat="42.437916" lon="-8.631836">
        <ele>0.8634144</ele>
        <time>2020-10-02T18:53:18Z</time>
      </trkpt>
      <trkpt lat="42.437508" lon="-8.632171">
        <ele>0.4751531</ele>
        <time>2020-10-02T18:53:28Z</time>
      </trkpt>
      <trkpt lat="42.43713" lon="-8.632361">
        <ele>1.3626176</ele>
        <time>2020-10-02T18:53:38Z</time>
      </trkpt>
      <trkpt lat="42.436657" lon="-8.632432">
        <ele>0.31073838</ele>
        <time>2020-10-02T18:53:48Z</time>
      </trkpt>
      <trkpt lat="42.436123" lon="-8.632729">
        <ele>0.5385422</ele>
        <time>2020-10-02T18:53:58Z</time>
      </trkpt>
      <trkpt lat="42.435833" lon="-8.632923">
        <ele>0.66730195</ele>
        <time>2020-10-02T18:54:03Z</time>
      </trkpt>
      <trkpt lat="42.435574" lon="-8.633236">
        <ele>1.1674912</ele>
        <time>2020-10-02T18:54:08Z</time>
      </trkpt>
      <trkpt lat="42.435352" lon="-8.63358">
        <ele>1.0357571</ele>
        <time>2020-10-02T18:54:13Z</time>
      </trkpt>
      <trkpt lat="42.434887" lon="-8.634341">
        <ele>1.4943537</ele>
        <time>2020-10-02T18:54:23Z</time>
      </trkpt>
      <trkpt lat="42.434387" lon="-8.635131">
        <ele>1.3497412</ele>
        <time>2020-10-02T18:54:33Z</time>
      </trkpt>
      <trkpt lat="42.43398" lon="-8.635603">
        <ele>0.45633447</ele>
        <time>2020-10-02T18:54:43Z</time>
      </trkpt>
      <trkpt lat="42.433895" lon="-8.636117">
        <ele>0.93769985</ele>
        <time>2020-10-02T18:54:53Z</time>
      </trkpt>
      <trkpt lat="42.433907" lon="-8.636267">
        <ele>0.83171934</ele>
        <time>2020-10-02T18:55:03Z</time>
      </trkpt>
      <trkpt lat="42.434017" lon="-8.636419">
        <ele>1.2467301</ele>
        <time>2020-10-02T18:55:13Z</time>
      </trkpt>
      <trkpt lat="42.434444" lon="-8.636525">
        <ele>1.8469745</ele>
        <time>2020-10-02T18:55:23Z</time>
      </trkpt>
      <trkpt lat="42.43465" lon="-8.636574">
        <ele>1.689483</ele>
        <time>2020-10-02T18:55:28Z</time>
      </trkpt>
      <trkpt lat="42.43481" lon="-8.6366005">
        <ele>1.3606366</ele>
        <time>2020-10-02T18:55:33Z</time>
      </trkpt>
      <trkpt lat="42.434914" lon="-8.63662">
        <ele>0.8396431</ele>
        <time>2020-10-02T18:55:38Z</time>
      </trkpt>
      <trkpt lat="42.435177" lon="-8.63679">
        <ele>0.81191</ele>
        <time>2020-10-02T18:55:48Z</time>
      </trkpt>
      <trkpt lat="42.435143" lon="-8.63737">
        <ele>-0.1448622</ele>
        <time>2020-10-02T18:55:58Z</time>
      </trkpt>
      <trkpt lat="42.43498" lon="-8.638136">
        <ele>0.23249325</ele>
        <time>2020-10-02T18:56:08Z</time>
      </trkpt>
      <trkpt lat="42.434914" lon="-8.638422">
        <ele>-0.060675856</ele>
        <time>2020-10-02T18:56:18Z</time>
      </trkpt>
      <trkpt lat="42.434986" lon="-8.638656">
        <ele>-0.32115728</ele>
        <time>2020-10-02T18:56:28Z</time>
      </trkpt>
      <trkpt lat="42.434895" lon="-8.639173">
        <ele>-0.3399752</ele>
        <time>2020-10-02T19:00:18Z</time>
      </trkpt>
      <trkpt lat="42.434906" lon="-8.63983">
        <ele>0.07798472</ele>
        <time>2020-10-02T19:00:28Z</time>
      </trkpt>
      <trkpt lat="42.435043" lon="-8.640628">
        <ele>0.2523021</ele>
        <time>2020-10-02T19:00:38Z</time>
      </trkpt>
      <trkpt lat="42.43512" lon="-8.641027">
        <ele>0.3969074</ele>
        <time>2020-10-02T19:00:43Z</time>
      </trkpt>
      <trkpt lat="42.435173" lon="-8.641309">
        <ele>0.2473499</ele>
        <time>2020-10-02T19:00:48Z</time>
      </trkpt>
      <trkpt lat="42.43522" lon="-8.6414795">
        <ele>0.56528455</ele>
        <time>2020-10-02T19:00:53Z</time>
      </trkpt>
      <trkpt lat="42.435482" lon="-8.642176">
        <ele>0.6544259</ele>
        <time>2020-10-02T19:01:03Z</time>
      </trkpt>
      <trkpt lat="42.43585" lon="-8.642875">
        <ele>0.59896016</ele>
        <time>2020-10-02T19:01:13Z</time>
      </trkpt>
      <trkpt lat="42.436146" lon="-8.64342">
        <ele>0.9575094</ele>
        <time>2020-10-02T19:01:23Z</time>
      </trkpt>
      <trkpt lat="42.436275" lon="-8.643841">
        <ele>1.2804068</ele>
        <time>2020-10-02T19:01:33Z</time>
      </trkpt>
      <trkpt lat="42.436646" lon="-8.6445265">
        <ele>0.8386526</ele>
        <time>2020-10-02T19:01:43Z</time>
      </trkpt>
      <trkpt lat="42.43691" lon="-8.645394">
        <ele>-0.28550223</ele>
        <time>2020-10-02T19:01:53Z</time>
      </trkpt>
      <trkpt lat="42.43711" lon="-8.646314">
        <ele>0.765358</ele>
        <time>2020-10-02T19:02:03Z</time>
      </trkpt>
      <trkpt lat="42.437183" lon="-8.647141">
        <ele>1.0941954</ele>
        <time>2020-10-02T19:02:13Z</time>
      </trkpt>
      <trkpt lat="42.437157" lon="-8.647545">
        <ele>1.5587363</ele>
        <time>2020-10-02T19:02:18Z</time>
      </trkpt>
      <trkpt lat="42.43704" lon="-8.648204">
        <ele>1.8568796</ele>
        <time>2020-10-02T19:02:28Z</time>
      </trkpt>
      <trkpt lat="42.436516" lon="-8.648082">
        <ele>2.121349</ele>
        <time>2020-10-02T19:02:38Z</time>
      </trkpt>
      <trkpt lat="42.43602" lon="-8.647795">
        <ele>2.2263453</ele>
        <time>2020-10-02T19:02:48Z</time>
      </trkpt>
      <trkpt lat="42.436073" lon="-8.647784">
        <ele>-0.31719562</ele>
        <time>2020-10-02T19:02:58Z</time>
      </trkpt>
      <trkpt lat="42.43593" lon="-8.648297">
        <ele>-0.9272846</ele>
        <time>2020-10-02T19:03:08Z</time>
      </trkpt>
      <trkpt lat="42.435547" lon="-8.648646">
        <ele>0.9168999</ele>
        <time>2020-10-02T19:03:18Z</time>
      </trkpt>
      <trkpt lat="42.435127" lon="-8.649162">
        <ele>1.1873009</ele>
        <time>2020-10-02T19:03:28Z</time>
      </trkpt>
      <trkpt lat="42.43494" lon="-8.649531">
        <ele>0.9565189</ele>
        <time>2020-10-02T19:03:33Z</time>
      </trkpt>
      <trkpt lat="42.434746" lon="-8.649827">
        <ele>0.68612075</ele>
        <time>2020-10-02T19:03:38Z</time>
      </trkpt>
      <trkpt lat="42.434547" lon="-8.650148">
        <ele>0.877281</ele>
        <time>2020-10-02T19:03:43Z</time>
      </trkpt>
      <trkpt lat="42.434135" lon="-8.650726">
        <ele>0.5910365</ele>
        <time>2020-10-02T19:03:53Z</time>
      </trkpt>
      <trkpt lat="42.433815" lon="-8.651138">
        <ele>-0.49943176</ele>
        <time>2020-10-02T19:04:03Z</time>
      </trkpt>
      <trkpt lat="42.433502" lon="-8.651481">
        <ele>0.14335358</ele>
        <time>2020-10-02T19:04:13Z</time>
      </trkpt>
      <trkpt lat="42.433147" lon="-8.651956">
        <ele>0.8406336</ele>
        <time>2020-10-02T19:04:23Z</time>
      </trkpt>
      <trkpt lat="42.432766" lon="-8.652305">
        <ele>1.5508122</ele>
        <time>2020-10-02T19:04:33Z</time>
      </trkpt>
      <trkpt lat="42.432526" lon="-8.652713">
        <ele>2.2412033</ele>
        <time>2020-10-02T19:04:43Z</time>
      </trkpt>
      <trkpt lat="42.43208" lon="-8.653045">
        <ele>2.1649323</ele>
        <time>2020-10-02T19:04:53Z</time>
      </trkpt>
      <trkpt lat="42.431435" lon="-8.653217">
        <ele>1.8380598</ele>
        <time>2020-10-02T19:05:03Z</time>
      </trkpt>
      <trkpt lat="42.431114" lon="-8.65333">
        <ele>1.4260093</ele>
        <time>2020-10-02T19:05:08Z</time>
      </trkpt>
      <trkpt lat="42.43081" lon="-8.653489">
        <ele>1.0674524</ele>
        <time>2020-10-02T19:05:13Z</time>
      </trkpt>
      <trkpt lat="42.430557" lon="-8.653641">
        <ele>0.6544259</ele>
        <time>2020-10-02T19:05:18Z</time>
      </trkpt>
      <trkpt lat="42.429985" lon="-8.653847">
        <ele>0.7178156</ele>
        <time>2020-10-02T19:05:28Z</time>
      </trkpt>
      <trkpt lat="42.429466" lon="-8.654105">
        <ele>0.2651779</ele>
        <time>2020-10-02T19:05:38Z</time>
      </trkpt>
      <trkpt lat="42.429047" lon="-8.653806">
        <ele>-0.31323394</ele>
        <time>2020-10-02T19:05:48Z</time>
      </trkpt>
      <trkpt lat="42.42879" lon="-8.653494">
        <ele>-0.3637452</ele>
        <time>2020-10-02T19:05:58Z</time>
      </trkpt>
      <trkpt lat="42.428898" lon="-8.6529455">
        <ele>0.7455486</ele>
        <time>2020-10-02T19:06:08Z</time>
      </trkpt>
      <trkpt lat="42.428818" lon="-8.652298">
        <ele>-0.116139844</ele>
        <time>2020-10-02T19:06:18Z</time>
      </trkpt>
      <trkpt lat="42.428467" lon="-8.651909">
        <ele>0.4394968</ele>
        <time>2020-10-02T19:06:28Z</time>
      </trkpt>
      <trkpt lat="42.42797" lon="-8.651902">
        <ele>0.031434286</ele>
        <time>2020-10-02T19:06:38Z</time>
      </trkpt>
      <trkpt lat="42.427876" lon="-8.651858">
        <ele>-0.33205187</ele>
        <time>2020-10-02T19:06:43Z</time>
      </trkpt>
      <trkpt lat="42.427795" lon="-8.651811">
        <ele>-0.41524678</ele>
        <time>2020-10-02T19:06:48Z</time>
      </trkpt>
      <trkpt lat="42.427723" lon="-8.651725">
        <ele>-0.7044456</ele>
        <time>2020-10-02T19:07:03Z</time>
      </trkpt>
      <trkpt lat="42.42792" lon="-8.651465">
        <ele>-0.58856845</ele>
        <time>2020-10-02T19:07:13Z</time>
      </trkpt>
      <trkpt lat="42.428066" lon="-8.651368">
        <ele>-0.6073862</ele>
        <time>2020-10-02T19:07:23Z</time>
      </trkpt>
      <trkpt lat="42.42805" lon="-8.651312">
        <ele>-0.84607244</ele>
        <time>2020-10-02T19:07:43Z</time>
      </trkpt>
      <trkpt lat="42.42805" lon="-8.651326">
        <ele>-1.144179</ele>
        <time>2020-10-02T19:07:57Z</time>
      </trkpt>
      <trkpt lat="42.428024" lon="-8.651405">
        <ele>-1.0292946</ele>
        <time>2020-10-02T19:08:03Z</time>
      </trkpt>
      <trkpt lat="42.429028" lon="-8.653542">
        <ele>-0.43161115</ele>
        <time>2020-10-02T17:10:42Z</time>
      </trkpt>
      <trkpt lat="42.429123" lon="-8.653721">
        <ele>0.635872</ele>
        <time>2020-10-02T17:10:47Z</time>
      </trkpt>
      <trkpt lat="42.42924" lon="-8.653956">
        <ele>0.061220445</ele>
        <time>2020-10-02T17:10:52Z</time>
      </trkpt>
      <trkpt lat="42.429436" lon="-8.654118">
        <ele>0.51116335</ele>
        <time>2020-10-02T17:10:57Z</time>
      </trkpt>
      <trkpt lat="42.429672" lon="-8.654178">
        <ele>0.4183806</ele>
        <time>2020-10-02T17:11:02Z</time>
      </trkpt>
      <trkpt lat="42.430035" lon="-8.654091">
        <ele>0.23680682</ele>
        <time>2020-10-02T17:11:12Z</time>
      </trkpt>
      <trkpt lat="42.43041" lon="-8.653896">
        <ele>0.04426047</ele>
        <time>2020-10-02T17:11:22Z</time>
      </trkpt>
      <trkpt lat="42.430634" lon="-8.653796">
        <ele>0.06421338</ele>
        <time>2020-10-02T17:11:27Z</time>
      </trkpt>
      <trkpt lat="42.430885" lon="-8.653649">
        <ele>0.7994908</ele>
        <time>2020-10-02T17:11:32Z</time>
      </trkpt>
      <trkpt lat="42.43115" lon="-8.653515">
        <ele>0.5251307</ele>
        <time>2020-10-02T17:11:37Z</time>
      </trkpt>
      <trkpt lat="42.431404" lon="-8.653382">
        <ele>1.1227412</ele>
        <time>2020-10-02T17:11:42Z</time>
      </trkpt>
      <trkpt lat="42.431694" lon="-8.653245">
        <ele>1.3382442</ele>
        <time>2020-10-02T17:11:47Z</time>
      </trkpt>
      <trkpt lat="42.432" lon="-8.653166">
        <ele>1.8181448</ele>
        <time>2020-10-02T17:11:52Z</time>
      </trkpt>
      <trkpt lat="42.432278" lon="-8.653042">
        <ele>2.3160155</ele>
        <time>2020-10-02T17:11:57Z</time>
      </trkpt>
      <trkpt lat="42.43252" lon="-8.652856">
        <ele>4.052165</ele>
        <time>2020-10-02T17:12:02Z</time>
      </trkpt>
      <trkpt lat="42.432728" lon="-8.652649">
        <ele>5.0609903</ele>
        <time>2020-10-02T17:12:07Z</time>
      </trkpt>
      <trkpt lat="42.432827" lon="-8.652493">
        <ele>2.8787522</ele>
        <time>2020-10-02T17:12:12Z</time>
      </trkpt>
      <trkpt lat="42.433025" lon="-8.652235">
        <ele>1.6964227</ele>
        <time>2020-10-02T17:12:17Z</time>
      </trkpt>
      <trkpt lat="42.4336" lon="-8.651551">
        <ele>0.276713</ele>
        <time>2020-10-02T17:12:27Z</time>
      </trkpt>
      <trkpt lat="42.434147" lon="-8.650867">
        <ele>0.9311848</ele>
        <time>2020-10-02T17:12:37Z</time>
      </trkpt>
      <trkpt lat="42.434624" lon="-8.650163">
        <ele>1.7672609</ele>
        <time>2020-10-02T17:12:47Z</time>
      </trkpt>
      <trkpt lat="42.43487" lon="-8.649821">
        <ele>2.1773288</ele>
        <time>2020-10-02T17:12:52Z</time>
      </trkpt>
      <trkpt lat="42.435112" lon="-8.649498">
        <ele>2.4117994</ele>
        <time>2020-10-02T17:12:57Z</time>
      </trkpt>
      <trkpt lat="42.43532" lon="-8.6491785">
        <ele>1.8390971</ele>
        <time>2020-10-02T17:13:02Z</time>
      </trkpt>
      <trkpt lat="42.43552" lon="-8.648836">
        <ele>2.7560265</ele>
        <time>2020-10-02T17:13:07Z</time>
      </trkpt>
      <trkpt lat="42.43576" lon="-8.648547">
        <ele>2.9974875</ele>
        <time>2020-10-02T17:13:12Z</time>
      </trkpt>
      <trkpt lat="42.435966" lon="-8.64829">
        <ele>3.1441617</ele>
        <time>2020-10-02T17:13:17Z</time>
      </trkpt>
      <trkpt lat="42.436226" lon="-8.648309">
        <ele>3.949389</ele>
        <time>2020-10-02T17:13:22Z</time>
      </trkpt>
      <trkpt lat="42.436527" lon="-8.648427">
        <ele>4.2986293</ele>
        <time>2020-10-02T17:13:27Z</time>
      </trkpt>
      <trkpt lat="42.436836" lon="-8.648551">
        <ele>2.9615676</ele>
        <time>2020-10-02T17:13:32Z</time>
      </trkpt>
      <trkpt lat="42.43707" lon="-8.648967">
        <ele>1.575699</ele>
        <time>2020-10-02T17:13:42Z</time>
      </trkpt>
      <trkpt lat="42.43703" lon="-8.648743">
        <ele>1.0738543</ele>
        <time>2020-10-02T17:13:47Z</time>
      </trkpt>
      <trkpt lat="42.437157" lon="-8.648046">
        <ele>2.65625</ele>
        <time>2020-10-02T17:13:56Z</time>
      </trkpt>
      <trkpt lat="42.437183" lon="-8.647585">
        <ele>2.8338525</ele>
        <time>2020-10-02T17:14:02Z</time>
      </trkpt>
      <trkpt lat="42.43719" lon="-8.647195">
        <ele>2.4207792</ele>
        <time>2020-10-02T17:14:07Z</time>
      </trkpt>
      <trkpt lat="42.43718" lon="-8.646773">
        <ele>2.3559253</ele>
        <time>2020-10-02T17:14:12Z</time>
      </trkpt>
      <trkpt lat="42.437122" lon="-8.646303">
        <ele>2.1124759</ele>
        <time>2020-10-02T17:14:17Z</time>
      </trkpt>
      <trkpt lat="42.43703" lon="-8.645829">
        <ele>2.0416365</ele>
        <time>2020-10-02T17:14:22Z</time>
      </trkpt>
      <trkpt lat="42.436935" lon="-8.645369">
        <ele>2.073564</ele>
        <time>2020-10-02T17:14:27Z</time>
      </trkpt>
      <trkpt lat="42.436825" lon="-8.644905">
        <ele>2.1394148</ele>
        <time>2020-10-02T17:14:32Z</time>
      </trkpt>
      <trkpt lat="42.43665" lon="-8.644496">
        <ele>2.1204576</ele>
        <time>2020-10-02T17:14:37Z</time>
      </trkpt>
      <trkpt lat="42.43633" lon="-8.643805">
        <ele>1.8121585</ele>
        <time>2020-10-02T17:14:47Z</time>
      </trkpt>
      <trkpt lat="42.435997" lon="-8.6431875">
        <ele>1.5018681</ele>
        <time>2020-10-02T17:14:57Z</time>
      </trkpt>
      <trkpt lat="42.43561" lon="-8.64236">
        <ele>1.610619</ele>
        <time>2020-10-02T17:15:07Z</time>
      </trkpt>
      <trkpt lat="42.43542" lon="-8.641936">
        <ele>1.8141539</ele>
        <time>2020-10-02T17:15:12Z</time>
      </trkpt>
      <trkpt lat="42.43529" lon="-8.641649">
        <ele>1.8700266</ele>
        <time>2020-10-02T17:15:17Z</time>
      </trkpt>
      <trkpt lat="42.435265" lon="-8.64145">
        <ele>1.4130721</ele>
        <time>2020-10-02T17:15:22Z</time>
      </trkpt>
      <trkpt lat="42.435196" lon="-8.641116">
        <ele>1.032949</ele>
        <time>2020-10-02T17:15:27Z</time>
      </trkpt>
      <trkpt lat="42.435097" lon="-8.640709">
        <ele>1.6535208</ele>
        <time>2020-10-02T17:15:32Z</time>
      </trkpt>
      <trkpt lat="42.435017" lon="-8.640243">
        <ele>1.6864455</ele>
        <time>2020-10-02T17:15:37Z</time>
      </trkpt>
      <trkpt lat="42.434937" lon="-8.6398325">
        <ele>1.8181448</ele>
        <time>2020-10-02T17:15:42Z</time>
      </trkpt>
      <trkpt lat="42.434895" lon="-8.63943">
        <ele>1.9348791</ele>
        <time>2020-10-02T17:15:47Z</time>
      </trkpt>
      <trkpt lat="42.434864" lon="-8.639026">
        <ele>1.9478495</ele>
        <time>2020-10-02T17:15:52Z</time>
      </trkpt>
      <trkpt lat="42.43492" lon="-8.638651">
        <ele>1.6615025</ele>
        <time>2020-10-02T17:15:57Z</time>
      </trkpt>
      <trkpt lat="42.43501" lon="-8.638217">
        <ele>2.3369682</ele>
        <time>2020-10-02T17:16:02Z</time>
      </trkpt>
      <trkpt lat="42.43527" lon="-8.637227">
        <ele>1.734336</ele>
        <time>2020-10-02T17:16:12Z</time>
      </trkpt>
      <trkpt lat="42.43518" lon="-8.636881">
        <ele>1.7652655</ele>
        <time>2020-10-02T17:16:17Z</time>
      </trkpt>
      <trkpt lat="42.4352" lon="-8.636572">
        <ele>1.8151517</ele>
        <time>2020-10-02T17:16:22Z</time>
      </trkpt>
      <trkpt lat="42.43539" lon="-8.636314">
        <ele>1.5607332</ele>
        <time>2020-10-02T17:16:27Z</time>
      </trkpt>
      <trkpt lat="42.435585" lon="-8.635928">
        <ele>0.8852914</ele>
        <time>2020-10-02T17:16:32Z</time>
      </trkpt>
      <trkpt lat="42.43577" lon="-8.635548">
        <ele>1.3292649</ele>
        <time>2020-10-02T17:16:37Z</time>
      </trkpt>
      <trkpt lat="42.43599" lon="-8.635226">
        <ele>1.5866737</ele>
        <time>2020-10-02T17:16:42Z</time>
      </trkpt>
      <trkpt lat="42.436207" lon="-8.634983">
        <ele>1.4629575</ele>
        <time>2020-10-02T17:16:47Z</time>
      </trkpt>
      <trkpt lat="42.436466" lon="-8.634641">
        <ele>0.34255838</ele>
        <time>2020-10-02T17:16:52Z</time>
      </trkpt>
      <trkpt lat="42.436714" lon="-8.634392">
        <ele>-0.053508542</ele>
        <time>2020-10-02T17:16:57Z</time>
      </trkpt>
      <trkpt lat="42.43689" lon="-8.634233">
        <ele>0.66679984</ele>
        <time>2020-10-02T17:17:02Z</time>
      </trkpt>
      <trkpt lat="42.436947" lon="-8.63421">
        <ele>1.6615025</ele>
        <time>2020-10-02T17:17:07Z</time>
      </trkpt>
      <trkpt lat="42.43748" lon="-8.633162">
        <ele>2.3090312</ele>
        <time>2020-10-02T17:25:32Z</time>
      </trkpt>
      <trkpt lat="42.43739" lon="-8.63296">
        <ele>-0.65507776</ele>
        <time>2020-10-02T17:25:37Z</time>
      </trkpt>
      <trkpt lat="42.437256" lon="-8.63242">
        <ele>-0.87255645</ele>
        <time>2020-10-02T17:25:47Z</time>
      </trkpt>
      <trkpt lat="42.43768" lon="-8.632083">
        <ele>-2.057678</ele>
        <time>2020-10-02T17:25:57Z</time>
      </trkpt>
      <trkpt lat="42.43787" lon="-8.631906">
        <ele>-0.44058976</ele>
        <time>2020-10-02T17:26:02Z</time>
      </trkpt>
      <trkpt lat="42.438057" lon="-8.631789">
        <ele>-0.7159321</ele>
        <time>2020-10-02T17:26:07Z</time>
      </trkpt>
      <trkpt lat="42.438347" lon="-8.631693">
        <ele>-1.0122205</ele>
        <time>2020-10-02T17:26:12Z</time>
      </trkpt>
      <trkpt lat="42.438637" lon="-8.631644">
        <ele>-0.97032136</ele>
        <time>2020-10-02T17:26:17Z</time>
      </trkpt>
      <trkpt lat="42.438942" lon="-8.631736">
        <ele>-1.1030017</ele>
        <time>2020-10-02T17:26:22Z</time>
      </trkpt>
      <trkpt lat="42.439274" lon="-8.631817">
        <ele>-0.8905133</ele>
        <time>2020-10-02T17:26:27Z</time>
      </trkpt>
      <trkpt lat="42.439568" lon="-8.631914">
        <ele>-0.5982137</ele>
        <time>2020-10-02T17:26:32Z</time>
      </trkpt>
      <trkpt lat="42.439854" lon="-8.63204">
        <ele>-0.6251493</ele>
        <time>2020-10-02T17:26:37Z</time>
      </trkpt>
      <trkpt lat="42.44014" lon="-8.632197">
        <ele>-0.4216349</ele>
        <time>2020-10-02T17:26:42Z</time>
      </trkpt>
      <trkpt lat="42.440746" lon="-8.632302">
        <ele>-0.45655173</ele>
        <time>2020-10-02T17:26:52Z</time>
      </trkpt>
      <trkpt lat="42.441437" lon="-8.632443">
        <ele>-0.19617072</ele>
        <time>2020-10-02T17:27:02Z</time>
      </trkpt>
      <trkpt lat="42.441784" lon="-8.632538">
        <ele>1.3212832</ele>
        <time>2020-10-02T17:27:07Z</time>
      </trkpt>
      <trkpt lat="42.442005" lon="-8.632493">
        <ele>2.53153</ele>
        <time>2020-10-02T17:27:12Z</time>
      </trkpt>
      <trkpt lat="42.442234" lon="-8.632556">
        <ele>2.1164668</ele>
        <time>2020-10-02T17:27:17Z</time>
      </trkpt>
      <trkpt lat="42.442524" lon="-8.63256">
        <ele>2.3269906</ele>
        <time>2020-10-02T17:27:22Z</time>
      </trkpt>
      <trkpt lat="42.44288" lon="-8.632565">
        <ele>2.53153</ele>
        <time>2020-10-02T17:27:27Z</time>
      </trkpt>
      <trkpt lat="42.443233" lon="-8.632588">
        <ele>1.9099357</ele>
        <time>2020-10-02T17:27:32Z</time>
      </trkpt>
      <trkpt lat="42.443504" lon="-8.632577">
        <ele>1.1716284</ele>
        <time>2020-10-02T17:27:37Z</time>
      </trkpt>
      <trkpt lat="42.44347" lon="-8.632647">
        <ele>1.403095</ele>
        <time>2020-10-02T17:27:42Z</time>
      </trkpt>
      <trkpt lat="42.443428" lon="-8.632661">
        <ele>1.677466</ele>
        <time>2020-10-02T17:27:47Z</time>
      </trkpt>
      <trkpt lat="42.44346" lon="-8.632703">
        <ele>1.4230491</ele>
        <time>2020-10-02T17:28:17Z</time>
      </trkpt>
      <trkpt lat="42.44343" lon="-8.632675">
        <ele>1.3292649</ele>
        <time>2020-10-02T17:28:47Z</time>
      </trkpt>
      <trkpt lat="42.443447" lon="-8.632567">
        <ele>0.6039465</ele>
        <time>2020-10-02T17:28:57Z</time>
      </trkpt>
      <trkpt lat="42.44339" lon="-8.632601">
        <ele>0.5041797</ele>
        <time>2020-10-02T17:31:52Z</time>
      </trkpt>
      <trkpt lat="42.443478" lon="-8.632616">
        <ele>-0.21512575</ele>
        <time>2020-10-02T17:33:27Z</time>
      </trkpt>
      <trkpt lat="42.4435" lon="-8.63265">
        <ele>0.13404872</ele>
        <time>2020-10-02T17:33:52Z</time>
      </trkpt>
      <trkpt lat="42.443478" lon="-8.632704">
        <ele>-0.4455779</ele>
        <time>2020-10-02T17:34:32Z</time>
      </trkpt>
      <trkpt lat="42.44347" lon="-8.632622">
        <ele>-0.6680467</ele>
        <time>2020-10-02T17:35:12Z</time>
      </trkpt>
      <trkpt lat="42.443542" lon="-8.632603">
        <ele>-0.5992113</ele>
        <time>2020-10-02T17:37:22Z</time>
      </trkpt>
      <trkpt lat="42.443542" lon="-8.632603">
        <time>2020-10-02T17:37:27Z</time>
      </trkpt>
    </trkseg>
  </trk>
</gpx>
